sensor_id;sensor_type;location;lat;lon;timestamp;P1;durP1;ratioP1;P2;durP2;ratioP2
18200;SDS011;9226;47.858;9.594;2023-04-03T00:02:22;9.23;;;5.20;;
18200;SDS011;9226;47.858;9.594;2023-04-03T00:04:48;9.03;;;4.67;;
18200;SDS011;9226;47.858;9.594;2023-04-03T00:07:13;13.37;;;6.27;;
18200;SDS011;9226;47.858;9.594;2023-04-03T00:09:39;8.97;;;4.63;;
18200;SDS011;9226;47.858;9.594;2023-04-03T00:12:05;9.57;;;4.87;;
18200;SDS011;9226;47.858;9.594;2023-04-03T00:14:30;8.10;;;4.47;;
18200;SDS011;9226;47.858;9.594;2023-04-03T00:16:56;8.77;;;4.90;;
18200;SDS011;9226;47.858;9.594;2023-04-03T00:19:21;8.90;;;4.80;;
18200;SDS011;9226;47.858;9.594;2023-04-03T00:21:46;7.60;;;4.10;;
18200;SDS011;9226;47.858;9.594;2023-04-03T00:24:12;8.17;;;4.23;;
18200;SDS011;9226;47.858;9.594;2023-04-03T00:26:37;9.97;;;4.80;;
18200;SDS011;9226;47.858;9.594;2023-04-03T00:29:02;9.50;;;4.87;;
18200;SDS011;9226;47.858;9.594;2023-04-03T00:31:28;10.90;;;4.77;;
18200;SDS011;9226;47.858;9.594;2023-04-03T00:33:53;8.17;;;4.50;;
18200;SDS011;9226;47.858;9.594;2023-04-03T00:36:19;9.97;;;5.10;;
18200;SDS011;9226;47.858;9.594;2023-04-03T00:38:44;10.07;;;4.87;;
18200;SDS011;9226;47.858;9.594;2023-04-03T00:41:10;9.73;;;5.33;;
18200;SDS011;9226;47.858;9.594;2023-04-03T00:43:35;8.53;;;4.30;;
18200;SDS011;9226;47.858;9.594;2023-04-03T00:46:01;9.80;;;5.13;;
18200;SDS011;9226;47.858;9.594;2023-04-03T00:48:34;10.80;;;5.37;;
18200;SDS011;9226;47.858;9.594;2023-04-03T00:51:12;8.30;;;4.77;;
18200;SDS011;9226;47.858;9.594;2023-04-03T00:54:05;13.30;;;5.67;;
18200;SDS011;9226;47.858;9.594;2023-04-03T00:56:30;8.80;;;4.97;;
18200;SDS011;9226;47.858;9.594;2023-04-03T00:59:00;11.33;;;6.07;;
18200;SDS011;9226;47.858;9.594;2023-04-03T01:01:35;13.50;;;6.30;;
18200;SDS011;9226;47.858;9.594;2023-04-03T01:04:01;11.40;;;6.10;;
18200;SDS011;9226;47.858;9.594;2023-04-03T01:06:28;13.53;;;5.60;;
18200;SDS011;9226;47.858;9.594;2023-04-03T01:08:57;9.23;;;5.30;;
18200;SDS011;9226;47.858;9.594;2023-04-03T01:11:24;11.03;;;5.73;;
18200;SDS011;9226;47.858;9.594;2023-04-03T01:13:51;12.07;;;5.53;;
18200;SDS011;9226;47.858;9.594;2023-04-03T01:16:17;12.17;;;5.80;;
18200;SDS011;9226;47.858;9.594;2023-04-03T01:18:42;11.37;;;5.73;;
18200;SDS011;9226;47.858;9.594;2023-04-03T01:23:59;11.87;;;5.90;;
18200;SDS011;9226;47.858;9.594;2023-04-03T01:26:27;13.90;;;6.17;;
18200;SDS011;9226;47.858;9.594;2023-04-03T01:28:54;14.57;;;6.20;;
18200;SDS011;9226;47.858;9.594;2023-04-03T01:31:22;12.57;;;5.60;;
18200;SDS011;9226;47.858;9.594;2023-04-03T01:33:51;12.03;;;6.60;;
18200;SDS011;9226;47.858;9.594;2023-04-03T01:36:18;10.77;;;5.60;;
18200;SDS011;9226;47.858;9.594;2023-04-03T01:38:46;10.50;;;5.33;;
18200;SDS011;9226;47.858;9.594;2023-04-03T01:41:11;13.33;;;7.17;;
18200;SDS011;9226;47.858;9.594;2023-04-03T01:43:37;13.17;;;6.63;;
18200;SDS011;9226;47.858;9.594;2023-04-03T01:46:03;13.30;;;6.37;;
18200;SDS011;9226;47.858;9.594;2023-04-03T01:48:28;14.00;;;6.27;;
18200;SDS011;9226;47.858;9.594;2023-04-03T01:50:54;10.67;;;5.80;;
18200;SDS011;9226;47.858;9.594;2023-04-03T01:53:19;12.33;;;6.17;;
18200;SDS011;9226;47.858;9.594;2023-04-03T01:55:44;12.40;;;5.73;;
18200;SDS011;9226;47.858;9.594;2023-04-03T01:58:10;13.83;;;7.10;;
18200;SDS011;9226;47.858;9.594;2023-04-03T02:00:35;12.63;;;5.63;;
18200;SDS011;9226;47.858;9.594;2023-04-03T02:03:01;11.30;;;5.63;;
18200;SDS011;9226;47.858;9.594;2023-04-03T02:05:27;11.87;;;5.97;;
18200;SDS011;9226;47.858;9.594;2023-04-03T02:07:53;8.23;;;4.90;;
18200;SDS011;9226;47.858;9.594;2023-04-03T02:10:18;13.47;;;6.03;;
18200;SDS011;9226;47.858;9.594;2023-04-03T02:12:43;10.87;;;5.57;;
18200;SDS011;9226;47.858;9.594;2023-04-03T02:15:09;10.77;;;5.50;;
18200;SDS011;9226;47.858;9.594;2023-04-03T02:17:35;11.00;;;6.00;;
18200;SDS011;9226;47.858;9.594;2023-04-03T02:20:00;9.53;;;5.90;;
18200;SDS011;9226;47.858;9.594;2023-04-03T02:22:26;12.63;;;6.43;;
18200;SDS011;9226;47.858;9.594;2023-04-03T02:24:51;10.83;;;5.57;;
18200;SDS011;9226;47.858;9.594;2023-04-03T02:27:17;10.23;;;5.40;;
18200;SDS011;9226;47.858;9.594;2023-04-03T02:29:42;9.73;;;5.23;;
18200;SDS011;9226;47.858;9.594;2023-04-03T02:32:08;11.10;;;5.60;;
18200;SDS011;9226;47.858;9.594;2023-04-03T02:34:33;12.03;;;5.63;;
18200;SDS011;9226;47.858;9.594;2023-04-03T02:36:59;9.30;;;5.13;;
18200;SDS011;9226;47.858;9.594;2023-04-03T02:39:24;14.43;;;5.70;;
18200;SDS011;9226;47.858;9.594;2023-04-03T02:41:51;11.37;;;6.33;;
18200;SDS011;9226;47.858;9.594;2023-04-03T02:44:16;12.20;;;6.20;;
18200;SDS011;9226;47.858;9.594;2023-04-03T02:46:41;11.27;;;5.70;;
18200;SDS011;9226;47.858;9.594;2023-04-03T02:49:07;11.77;;;5.50;;
18200;SDS011;9226;47.858;9.594;2023-04-03T02:51:32;10.37;;;5.30;;
18200;SDS011;9226;47.858;9.594;2023-04-03T02:53:58;10.93;;;5.27;;
18200;SDS011;9226;47.858;9.594;2023-04-03T02:56:23;10.83;;;4.70;;
18200;SDS011;9226;47.858;9.594;2023-04-03T02:58:48;13.20;;;5.53;;
18200;SDS011;9226;47.858;9.594;2023-04-03T03:01:14;10.80;;;5.40;;
18200;SDS011;9226;47.858;9.594;2023-04-03T03:03:40;12.37;;;4.37;;
18200;SDS011;9226;47.858;9.594;2023-04-03T03:06:06;7.97;;;4.50;;
18200;SDS011;9226;47.858;9.594;2023-04-03T03:08:34;9.83;;;5.03;;
18200;SDS011;9226;47.858;9.594;2023-04-03T03:11:01;10.47;;;5.17;;
18200;SDS011;9226;47.858;9.594;2023-04-03T03:13:27;9.60;;;5.30;;
18200;SDS011;9226;47.858;9.594;2023-04-03T03:15:53;10.87;;;4.80;;
18200;SDS011;9226;47.858;9.594;2023-04-03T03:18:18;10.57;;;5.33;;
18200;SDS011;9226;47.858;9.594;2023-04-03T03:20:44;8.97;;;5.13;;
18200;SDS011;9226;47.858;9.594;2023-04-03T03:23:10;9.93;;;4.80;;
18200;SDS011;9226;47.858;9.594;2023-04-03T03:25:39;11.00;;;5.20;;
18200;SDS011;9226;47.858;9.594;2023-04-03T03:28:05;9.60;;;5.07;;
18200;SDS011;9226;47.858;9.594;2023-04-03T03:30:30;9.33;;;5.13;;
18200;SDS011;9226;47.858;9.594;2023-04-03T03:32:56;12.70;;;5.47;;
18200;SDS011;9226;47.858;9.594;2023-04-03T03:35:21;9.30;;;4.73;;
18200;SDS011;9226;47.858;9.594;2023-04-03T03:37:46;11.57;;;5.33;;
18200;SDS011;9226;47.858;9.594;2023-04-03T03:40:12;9.00;;;4.90;;
18200;SDS011;9226;47.858;9.594;2023-04-03T03:42:38;10.30;;;5.47;;
18200;SDS011;9226;47.858;9.594;2023-04-03T03:45:04;9.80;;;5.13;;
18200;SDS011;9226;47.858;9.594;2023-04-03T03:47:30;10.53;;;4.77;;
18200;SDS011;9226;47.858;9.594;2023-04-03T03:49:55;9.70;;;4.70;;
18200;SDS011;9226;47.858;9.594;2023-04-03T03:52:20;9.33;;;5.03;;
18200;SDS011;9226;47.858;9.594;2023-04-03T03:54:46;11.40;;;5.33;;
18200;SDS011;9226;47.858;9.594;2023-04-03T03:57:11;14.00;;;4.83;;
18200;SDS011;9226;47.858;9.594;2023-04-03T03:59:36;7.93;;;4.57;;
18200;SDS011;9226;47.858;9.594;2023-04-03T04:02:02;13.53;;;5.40;;
18200;SDS011;9226;47.858;9.594;2023-04-03T04:04:28;8.47;;;4.67;;
18200;SDS011;9226;47.858;9.594;2023-04-03T04:06:53;9.27;;;4.87;;
18200;SDS011;9226;47.858;9.594;2023-04-03T04:09:19;8.20;;;4.57;;
18200;SDS011;9226;47.858;9.594;2023-04-03T04:11:44;8.67;;;4.53;;
18200;SDS011;9226;47.858;9.594;2023-04-03T04:14:10;9.10;;;4.70;;
18200;SDS011;9226;47.858;9.594;2023-04-03T04:16:37;9.57;;;5.13;;
18200;SDS011;9226;47.858;9.594;2023-04-03T04:19:02;9.73;;;4.77;;
18200;SDS011;9226;47.858;9.594;2023-04-03T04:21:28;9.27;;;4.97;;
18200;SDS011;9226;47.858;9.594;2023-04-03T04:23:53;9.47;;;4.97;;
18200;SDS011;9226;47.858;9.594;2023-04-03T04:26:19;8.97;;;5.03;;
18200;SDS011;9226;47.858;9.594;2023-04-03T04:28:45;8.57;;;4.40;;
18200;SDS011;9226;47.858;9.594;2023-04-03T04:31:10;11.03;;;4.80;;
18200;SDS011;9226;47.858;9.594;2023-04-03T04:33:35;9.97;;;5.17;;
18200;SDS011;9226;47.858;9.594;2023-04-03T04:36:01;8.80;;;4.80;;
18200;SDS011;9226;47.858;9.594;2023-04-03T04:38:26;7.93;;;4.37;;
18200;SDS011;9226;47.858;9.594;2023-04-03T04:40:52;8.20;;;4.57;;
18200;SDS011;9226;47.858;9.594;2023-04-03T04:43:17;7.87;;;4.67;;
18200;SDS011;9226;47.858;9.594;2023-04-03T04:45:42;8.87;;;4.77;;
18200;SDS011;9226;47.858;9.594;2023-04-03T04:48:08;8.10;;;4.53;;
18200;SDS011;9226;47.858;9.594;2023-04-03T04:50:33;8.93;;;5.13;;
18200;SDS011;9226;47.858;9.594;2023-04-03T04:52:59;7.73;;;4.40;;
18200;SDS011;9226;47.858;9.594;2023-04-03T04:55:24;7.03;;;4.50;;
18200;SDS011;9226;47.858;9.594;2023-04-03T04:57:50;7.23;;;4.70;;
18200;SDS011;9226;47.858;9.594;2023-04-03T05:00:15;7.53;;;4.33;;
18200;SDS011;9226;47.858;9.594;2023-04-03T05:02:41;7.90;;;4.27;;
18200;SDS011;9226;47.858;9.594;2023-04-03T05:05:07;7.97;;;3.90;;
18200;SDS011;9226;47.858;9.594;2023-04-03T05:07:33;7.80;;;4.30;;
18200;SDS011;9226;47.858;9.594;2023-04-03T05:09:58;9.17;;;4.03;;
18200;SDS011;9226;47.858;9.594;2023-04-03T05:12:24;11.70;;;4.40;;
18200;SDS011;9226;47.858;9.594;2023-04-03T05:14:49;7.07;;;3.60;;
18200;SDS011;9226;47.858;9.594;2023-04-03T05:17:15;7.07;;;4.20;;
18200;SDS011;9226;47.858;9.594;2023-04-03T05:19:40;7.50;;;4.40;;
18200;SDS011;9226;47.858;9.594;2023-04-03T05:22:05;10.03;;;4.60;;
18200;SDS011;9226;47.858;9.594;2023-04-03T05:24:31;7.17;;;4.10;;
18200;SDS011;9226;47.858;9.594;2023-04-03T05:26:56;7.40;;;4.00;;
18200;SDS011;9226;47.858;9.594;2023-04-03T05:29:21;8.97;;;4.30;;
18200;SDS011;9226;47.858;9.594;2023-04-03T05:31:49;10.30;;;4.27;;
18200;SDS011;9226;47.858;9.594;2023-04-03T05:34:15;6.67;;;3.57;;
18200;SDS011;9226;47.858;9.594;2023-04-03T05:36:40;7.83;;;4.10;;
18200;SDS011;9226;47.858;9.594;2023-04-03T05:39:06;8.97;;;4.27;;
18200;SDS011;9226;47.858;9.594;2023-04-03T05:41:32;9.53;;;3.87;;
18200;SDS011;9226;47.858;9.594;2023-04-03T05:43:57;10.20;;;4.00;;
18200;SDS011;9226;47.858;9.594;2023-04-03T05:46:22;8.47;;;4.17;;
18200;SDS011;9226;47.858;9.594;2023-04-03T05:48:48;9.60;;;4.00;;
18200;SDS011;9226;47.858;9.594;2023-04-03T05:51:17;9.60;;;4.43;;
18200;SDS011;9226;47.858;9.594;2023-04-03T05:53:46;6.43;;;3.93;;
18200;SDS011;9226;47.858;9.594;2023-04-03T05:56:12;7.70;;;3.80;;
18200;SDS011;9226;47.858;9.594;2023-04-03T05:58:38;7.63;;;3.63;;
18200;SDS011;9226;47.858;9.594;2023-04-03T06:01:03;13.00;;;4.27;;
18200;SDS011;9226;47.858;9.594;2023-04-03T06:03:30;5.83;;;3.60;;
18200;SDS011;9226;47.858;9.594;2023-04-03T06:05:56;8.77;;;4.17;;
18200;SDS011;9226;47.858;9.594;2023-04-03T06:08:21;9.27;;;3.73;;
18200;SDS011;9226;47.858;9.594;2023-04-03T06:10:48;7.27;;;3.80;;
18200;SDS011;9226;47.858;9.594;2023-04-03T06:13:15;7.00;;;3.93;;
18200;SDS011;9226;47.858;9.594;2023-04-03T06:15:40;7.23;;;3.90;;
18200;SDS011;9226;47.858;9.594;2023-04-03T06:18:06;8.77;;;3.90;;
18200;SDS011;9226;47.858;9.594;2023-04-03T06:20:31;6.70;;;3.77;;
18200;SDS011;9226;47.858;9.594;2023-04-03T06:22:57;6.00;;;3.57;;
18200;SDS011;9226;47.858;9.594;2023-04-03T06:25:22;10.20;;;4.63;;
18200;SDS011;9226;47.858;9.594;2023-04-03T06:27:48;6.97;;;3.87;;
18200;SDS011;9226;47.858;9.594;2023-04-03T06:30:13;9.93;;;4.23;;
18200;SDS011;9226;47.858;9.594;2023-04-03T06:32:39;10.73;;;4.20;;
18200;SDS011;9226;47.858;9.594;2023-04-03T06:35:04;10.23;;;4.20;;
18200;SDS011;9226;47.858;9.594;2023-04-03T06:37:30;7.27;;;3.93;;
18200;SDS011;9226;47.858;9.594;2023-04-03T06:39:57;8.30;;;3.67;;
18200;SDS011;9226;47.858;9.594;2023-04-03T06:42:23;9.40;;;4.47;;
18200;SDS011;9226;47.858;9.594;2023-04-03T06:44:48;6.30;;;3.90;;
18200;SDS011;9226;47.858;9.594;2023-04-03T06:47:14;8.93;;;4.20;;
18200;SDS011;9226;47.858;9.594;2023-04-03T06:49:40;8.57;;;3.80;;
18200;SDS011;9226;47.858;9.594;2023-04-03T06:52:06;9.77;;;4.10;;
18200;SDS011;9226;47.858;9.594;2023-04-03T06:54:32;7.00;;;4.10;;
18200;SDS011;9226;47.858;9.594;2023-04-03T06:56:57;6.77;;;3.77;;
18200;SDS011;9226;47.858;9.594;2023-04-03T06:59:23;8.43;;;3.80;;
18200;SDS011;9226;47.858;9.594;2023-04-03T07:01:49;8.10;;;4.30;;
18200;SDS011;9226;47.858;9.594;2023-04-03T07:04:15;7.03;;;3.83;;
18200;SDS011;9226;47.858;9.594;2023-04-03T07:06:40;8.60;;;3.80;;
18200;SDS011;9226;47.858;9.594;2023-04-03T07:09:07;10.13;;;4.27;;
18200;SDS011;9226;47.858;9.594;2023-04-03T07:11:33;8.50;;;4.10;;
18200;SDS011;9226;47.858;9.594;2023-04-03T07:13:59;7.43;;;4.13;;
18200;SDS011;9226;47.858;9.594;2023-04-03T07:16:25;7.63;;;4.27;;
18200;SDS011;9226;47.858;9.594;2023-04-03T07:18:50;7.80;;;4.10;;
18200;SDS011;9226;47.858;9.594;2023-04-03T07:21:16;9.90;;;4.07;;
18200;SDS011;9226;47.858;9.594;2023-04-03T07:23:41;12.37;;;4.40;;
18200;SDS011;9226;47.858;9.594;2023-04-03T07:26:07;8.93;;;4.20;;
18200;SDS011;9226;47.858;9.594;2023-04-03T07:28:33;9.63;;;4.17;;
18200;SDS011;9226;47.858;9.594;2023-04-03T07:31:10;8.80;;;4.47;;
18200;SDS011;9226;47.858;9.594;2023-04-03T07:33:38;18.73;;;4.87;;
18200;SDS011;9226;47.858;9.594;2023-04-03T07:36:05;9.73;;;4.60;;
18200;SDS011;9226;47.858;9.594;2023-04-03T07:38:32;9.57;;;4.73;;
18200;SDS011;9226;47.858;9.594;2023-04-03T07:40:58;9.90;;;4.40;;
18200;SDS011;9226;47.858;9.594;2023-04-03T07:43:24;9.07;;;4.77;;
18200;SDS011;9226;47.858;9.594;2023-04-03T07:45:50;9.13;;;5.27;;
18200;SDS011;9226;47.858;9.594;2023-04-03T07:48:20;9.53;;;4.67;;
18200;SDS011;9226;47.858;9.594;2023-04-03T07:50:47;9.63;;;4.47;;
18200;SDS011;9226;47.858;9.594;2023-04-03T07:53:12;8.70;;;4.57;;
18200;SDS011;9226;47.858;9.594;2023-04-03T07:55:39;11.47;;;5.10;;
18200;SDS011;9226;47.858;9.594;2023-04-03T07:58:11;11.27;;;4.17;;
18200;SDS011;9226;47.858;9.594;2023-04-03T08:00:39;11.27;;;4.90;;
18200;SDS011;9226;47.858;9.594;2023-04-03T08:03:06;9.53;;;5.00;;
18200;SDS011;9226;47.858;9.594;2023-04-03T08:05:36;11.57;;;5.20;;
18200;SDS011;9226;47.858;9.594;2023-04-03T08:08:09;6.77;;;4.30;;
18200;SDS011;9226;47.858;9.594;2023-04-03T08:10:36;9.33;;;5.07;;
18200;SDS011;9226;47.858;9.594;2023-04-03T08:13:02;8.17;;;4.80;;
18200;SDS011;9226;47.858;9.594;2023-04-03T08:15:29;7.87;;;4.53;;
18200;SDS011;9226;47.858;9.594;2023-04-03T08:17:56;11.30;;;5.17;;
18200;SDS011;9226;47.858;9.594;2023-04-03T08:20:22;10.33;;;5.23;;
18200;SDS011;9226;47.858;9.594;2023-04-03T08:22:47;9.27;;;4.93;;
18200;SDS011;9226;47.858;9.594;2023-04-03T08:25:13;8.83;;;4.67;;
18200;SDS011;9226;47.858;9.594;2023-04-03T08:27:39;11.13;;;5.13;;
18200;SDS011;9226;47.858;9.594;2023-04-03T08:30:04;9.20;;;4.47;;
18200;SDS011;9226;47.858;9.594;2023-04-03T08:32:32;11.57;;;5.13;;
18200;SDS011;9226;47.858;9.594;2023-04-03T08:34:59;8.67;;;4.13;;
18200;SDS011;9226;47.858;9.594;2023-04-03T08:37:25;9.13;;;4.93;;
18200;SDS011;9226;47.858;9.594;2023-04-03T08:39:51;7.43;;;4.63;;
18200;SDS011;9226;47.858;9.594;2023-04-03T08:42:27;9.60;;;5.10;;
18200;SDS011;9226;47.858;9.594;2023-04-03T08:45:19;10.80;;;5.33;;
18200;SDS011;9226;47.858;9.594;2023-04-03T08:48:03;10.50;;;4.63;;
18200;SDS011;9226;47.858;9.594;2023-04-03T08:50:49;10.10;;;4.90;;
18200;SDS011;9226;47.858;9.594;2023-04-03T08:53:19;8.40;;;4.80;;
18200;SDS011;9226;47.858;9.594;2023-04-03T08:55:48;9.63;;;4.43;;
18200;SDS011;9226;47.858;9.594;2023-04-03T09:00:48;9.37;;;4.67;;
18200;SDS011;9226;47.858;9.594;2023-04-03T09:03:17;9.27;;;4.80;;
18200;SDS011;9226;47.858;9.594;2023-04-03T09:05:47;9.57;;;5.07;;
18200;SDS011;9226;47.858;9.594;2023-04-03T09:10:47;7.23;;;4.27;;
18200;SDS011;9226;47.858;9.594;2023-04-03T09:13:35;10.87;;;5.03;;
18200;SDS011;9226;47.858;9.594;2023-04-03T09:19:16;8.47;;;4.60;;
18200;SDS011;9226;47.858;9.594;2023-04-03T09:21:44;9.73;;;5.00;;
18200;SDS011;9226;47.858;9.594;2023-04-03T09:24:10;7.87;;;4.10;;
18200;SDS011;9226;47.858;9.594;2023-04-03T09:29:08;9.43;;;5.17;;
18200;SDS011;9226;47.858;9.594;2023-04-03T09:31:40;15.93;;;5.50;;
18200;SDS011;9226;47.858;9.594;2023-04-03T09:34:27;18.93;;;5.70;;
18200;SDS011;9226;47.858;9.594;2023-04-03T09:37:00;10.60;;;5.07;;
18200;SDS011;9226;47.858;9.594;2023-04-03T09:39:48;10.80;;;4.70;;
18200;SDS011;9226;47.858;9.594;2023-04-03T09:42:19;7.73;;;4.73;;
18200;SDS011;9226;47.858;9.594;2023-04-03T09:45:00;9.67;;;4.60;;
18200;SDS011;9226;47.858;9.594;2023-04-03T09:47:29;9.73;;;4.90;;
18200;SDS011;9226;47.858;9.594;2023-04-03T09:52:39;7.20;;;4.40;;
18200;SDS011;9226;47.858;9.594;2023-04-03T09:57:40;7.20;;;4.17;;
18200;SDS011;9226;47.858;9.594;2023-04-03T10:00:06;7.67;;;4.10;;
18200;SDS011;9226;47.858;9.594;2023-04-03T10:02:44;7.47;;;4.40;;
18200;SDS011;9226;47.858;9.594;2023-04-03T10:05:33;7.00;;;4.30;;
18200;SDS011;9226;47.858;9.594;2023-04-03T10:08:14;6.60;;;4.60;;
18200;SDS011;9226;47.858;9.594;2023-04-03T10:10:46;6.57;;;4.13;;
18200;SDS011;9226;47.858;9.594;2023-04-03T10:13:14;6.80;;;3.97;;
18200;SDS011;9226;47.858;9.594;2023-04-03T10:16:29;8.13;;;4.50;;
18200;SDS011;9226;47.858;9.594;2023-04-03T10:21:32;11.37;;;4.47;;
18200;SDS011;9226;47.858;9.594;2023-04-03T10:27:03;7.33;;;4.30;;
18200;SDS011;9226;47.858;9.594;2023-04-03T10:32:45;6.77;;;3.90;;
18200;SDS011;9226;47.858;9.594;2023-04-03T10:38:08;8.20;;;3.80;;
18200;SDS011;9226;47.858;9.594;2023-04-03T10:40:38;9.30;;;3.43;;
18200;SDS011;9226;47.858;9.594;2023-04-03T10:43:14;9.97;;;3.33;;
18200;SDS011;9226;47.858;9.594;2023-04-03T10:45:49;5.27;;;3.40;;
18200;SDS011;9226;47.858;9.594;2023-04-03T10:48:35;8.33;;;3.50;;
18200;SDS011;9226;47.858;9.594;2023-04-03T10:51:25;5.70;;;3.77;;
18200;SDS011;9226;47.858;9.594;2023-04-03T10:59:35;8.63;;;3.60;;
18200;SDS011;9226;47.858;9.594;2023-04-03T11:04:56;5.30;;;3.30;;
18200;SDS011;9226;47.858;9.594;2023-04-03T11:07:48;8.73;;;3.30;;
18200;SDS011;9226;47.858;9.594;2023-04-03T11:10:30;7.67;;;3.37;;
18200;SDS011;9226;47.858;9.594;2023-04-03T11:13:18;4.63;;;2.93;;
18200;SDS011;9226;47.858;9.594;2023-04-03T11:15:48;4.70;;;3.27;;
18200;SDS011;9226;47.858;9.594;2023-04-03T11:18:24;9.40;;;3.50;;
18200;SDS011;9226;47.858;9.594;2023-04-03T11:23:54;4.37;;;3.17;;
18200;SDS011;9226;47.858;9.594;2023-04-03T11:26:24;6.53;;;3.50;;
18200;SDS011;9226;47.858;9.594;2023-04-03T11:28:56;5.23;;;3.37;;
18200;SDS011;9226;47.858;9.594;2023-04-03T11:36:29;5.10;;;3.27;;
18200;SDS011;9226;47.858;9.594;2023-04-03T11:38:57;6.77;;;3.57;;
18200;SDS011;9226;47.858;9.594;2023-04-03T11:41:28;5.77;;;3.30;;
18200;SDS011;9226;47.858;9.594;2023-04-03T11:46:23;4.40;;;3.37;;
18200;SDS011;9226;47.858;9.594;2023-04-03T11:57:50;9.33;;;3.43;;
18200;SDS011;9226;47.858;9.594;2023-04-03T12:03:29;6.43;;;3.33;;
18200;SDS011;9226;47.858;9.594;2023-04-03T12:13:39;5.37;;;3.60;;
18200;SDS011;9226;47.858;9.594;2023-04-03T12:21:23;6.63;;;3.20;;
18200;SDS011;9226;47.858;9.594;2023-04-03T12:29:14;5.43;;;3.43;;
18200;SDS011;9226;47.858;9.594;2023-04-03T12:34:55;5.47;;;3.03;;
18200;SDS011;9226;47.858;9.594;2023-04-03T12:40:16;9.13;;;3.03;;
18200;SDS011;9226;47.858;9.594;2023-04-03T12:45:48;4.40;;;3.13;;
18200;SDS011;9226;47.858;9.594;2023-04-03T12:48:22;5.47;;;3.10;;
18200;SDS011;9226;47.858;9.594;2023-04-03T12:50:51;6.67;;;3.20;;
18200;SDS011;9226;47.858;9.594;2023-04-03T12:53:25;4.93;;;2.93;;
18200;SDS011;9226;47.858;9.594;2023-04-03T12:56:17;5.17;;;3.10;;
18200;SDS011;9226;47.858;9.594;2023-04-03T13:01:55;4.67;;;3.10;;
18200;SDS011;9226;47.858;9.594;2023-04-03T13:04:23;6.93;;;3.57;;
18200;SDS011;9226;47.858;9.594;2023-04-03T13:06:49;5.53;;;3.10;;
18200;SDS011;9226;47.858;9.594;2023-04-03T13:09:26;6.83;;;3.23;;
18200;SDS011;9226;47.858;9.594;2023-04-03T13:12:00;5.43;;;3.10;;
18200;SDS011;9226;47.858;9.594;2023-04-03T13:14:29;4.80;;;3.20;;
18200;SDS011;9226;47.858;9.594;2023-04-03T13:17:14;3.97;;;2.87;;
18200;SDS011;9226;47.858;9.594;2023-04-03T13:19:40;5.03;;;3.43;;
18200;SDS011;9226;47.858;9.594;2023-04-03T13:22:22;7.63;;;3.27;;
18200;SDS011;9226;47.858;9.594;2023-04-03T13:24:53;4.13;;;2.57;;
18200;SDS011;9226;47.858;9.594;2023-04-03T13:27:21;4.50;;;3.40;;
18200;SDS011;9226;47.858;9.594;2023-04-03T13:29:50;7.87;;;3.53;;
18200;SDS011;9226;47.858;9.594;2023-04-03T13:32:19;4.97;;;3.00;;
18200;SDS011;9226;47.858;9.594;2023-04-03T13:34:47;4.20;;;2.90;;
18200;SDS011;9226;47.858;9.594;2023-04-03T13:37:24;9.60;;;3.90;;
18200;SDS011;9226;47.858;9.594;2023-04-03T13:42:27;5.30;;;2.90;;
18200;SDS011;9226;47.858;9.594;2023-04-03T13:45:18;3.80;;;2.90;;
18200;SDS011;9226;47.858;9.594;2023-04-03T13:47:46;5.47;;;3.53;;
18200;SDS011;9226;47.858;9.594;2023-04-03T13:52:42;6.80;;;3.50;;
18200;SDS011;9226;47.858;9.594;2023-04-03T13:55:15;5.70;;;2.83;;
18200;SDS011;9226;47.858;9.594;2023-04-03T14:02:59;4.17;;;2.73;;
18200;SDS011;9226;47.858;9.594;2023-04-03T14:05:24;5.30;;;2.80;;
18200;SDS011;9226;47.858;9.594;2023-04-03T14:07:50;4.57;;;3.00;;
18200;SDS011;9226;47.858;9.594;2023-04-03T14:10:16;3.90;;;2.83;;
18200;SDS011;9226;47.858;9.594;2023-04-03T14:12:42;5.00;;;3.03;;
18200;SDS011;9226;47.858;9.594;2023-04-03T14:15:16;14.87;;;3.33;;
18200;SDS011;9226;47.858;9.594;2023-04-03T14:17:45;5.40;;;2.60;;
18200;SDS011;9226;47.858;9.594;2023-04-03T14:20:14;7.73;;;2.63;;
18200;SDS011;9226;47.858;9.594;2023-04-03T14:22:41;3.27;;;2.60;;
18200;SDS011;9226;47.858;9.594;2023-04-03T14:25:07;6.73;;;3.10;;
18200;SDS011;9226;47.858;9.594;2023-04-03T14:27:37;5.20;;;3.10;;
18200;SDS011;9226;47.858;9.594;2023-04-03T14:30:06;4.00;;;2.90;;
18200;SDS011;9226;47.858;9.594;2023-04-03T14:32:34;4.93;;;3.00;;
18200;SDS011;9226;47.858;9.594;2023-04-03T14:35:00;4.53;;;2.80;;
18200;SDS011;9226;47.858;9.594;2023-04-03T14:37:26;6.13;;;4.03;;
18200;SDS011;9226;47.858;9.594;2023-04-03T14:39:55;7.43;;;3.40;;
18200;SDS011;9226;47.858;9.594;2023-04-03T14:42:24;6.37;;;3.60;;
18200;SDS011;9226;47.858;9.594;2023-04-03T14:44:52;4.50;;;3.37;;
18200;SDS011;9226;47.858;9.594;2023-04-03T14:47:23;5.67;;;3.67;;
18200;SDS011;9226;47.858;9.594;2023-04-03T14:49:51;6.13;;;3.87;;
18200;SDS011;9226;47.858;9.594;2023-04-03T14:54:51;11.97;;;3.47;;
18200;SDS011;9226;47.858;9.594;2023-04-03T14:57:17;6.10;;;3.37;;
18200;SDS011;9226;47.858;9.594;2023-04-03T14:59:43;5.67;;;3.27;;
18200;SDS011;9226;47.858;9.594;2023-04-03T15:02:52;4.87;;;3.03;;
18200;SDS011;9226;47.858;9.594;2023-04-03T15:05:03;4.27;;;3.10;;
18200;SDS011;9226;47.858;9.594;2023-04-03T15:07:35;4.57;;;3.00;;
18200;SDS011;9226;47.858;9.594;2023-04-03T15:10:19;7.10;;;3.50;;
18200;SDS011;9226;47.858;9.594;2023-04-03T15:12:47;5.97;;;3.43;;
18200;SDS011;9226;47.858;9.594;2023-04-03T15:15:13;6.47;;;3.60;;
18200;SDS011;9226;47.858;9.594;2023-04-03T15:17:40;6.87;;;3.40;;
18200;SDS011;9226;47.858;9.594;2023-04-03T15:20:11;8.60;;;3.60;;
18200;SDS011;9226;47.858;9.594;2023-04-03T15:22:39;5.13;;;3.53;;
18200;SDS011;9226;47.858;9.594;2023-04-03T15:25:04;6.10;;;3.63;;
18200;SDS011;9226;47.858;9.594;2023-04-03T15:27:30;5.40;;;3.63;;
18200;SDS011;9226;47.858;9.594;2023-04-03T15:29:55;6.80;;;3.80;;
18200;SDS011;9226;47.858;9.594;2023-04-03T15:32:21;7.60;;;3.80;;
18200;SDS011;9226;47.858;9.594;2023-04-03T15:34:46;4.60;;;3.30;;
18200;SDS011;9226;47.858;9.594;2023-04-03T15:37:11;7.27;;;3.77;;
18200;SDS011;9226;47.858;9.594;2023-04-03T15:39:37;6.90;;;3.60;;
18200;SDS011;9226;47.858;9.594;2023-04-03T15:42:02;7.40;;;4.17;;
18200;SDS011;9226;47.858;9.594;2023-04-03T15:44:31;4.97;;;3.30;;
18200;SDS011;9226;47.858;9.594;2023-04-03T15:46:58;4.97;;;3.30;;
18200;SDS011;9226;47.858;9.594;2023-04-03T15:49:24;8.93;;;3.90;;
18200;SDS011;9226;47.858;9.594;2023-04-03T15:51:51;6.27;;;3.63;;
18200;SDS011;9226;47.858;9.594;2023-04-03T15:54:17;5.10;;;3.30;;
18200;SDS011;9226;47.858;9.594;2023-04-03T15:56:42;5.87;;;3.43;;
18200;SDS011;9226;47.858;9.594;2023-04-03T15:59:08;5.83;;;3.53;;
18200;SDS011;9226;47.858;9.594;2023-04-03T16:01:33;5.90;;;3.80;;
18200;SDS011;9226;47.858;9.594;2023-04-03T16:03:59;6.07;;;3.53;;
18200;SDS011;9226;47.858;9.594;2023-04-03T16:06:25;7.13;;;3.80;;
18200;SDS011;9226;47.858;9.594;2023-04-03T16:08:54;7.97;;;3.73;;
18200;SDS011;9226;47.858;9.594;2023-04-03T16:11:22;5.20;;;3.13;;
18200;SDS011;9226;47.858;9.594;2023-04-03T16:13:49;5.90;;;3.57;;
18200;SDS011;9226;47.858;9.594;2023-04-03T16:16:14;6.93;;;3.40;;
18200;SDS011;9226;47.858;9.594;2023-04-03T16:18:40;10.40;;;3.60;;
18200;SDS011;9226;47.858;9.594;2023-04-03T16:21:06;7.87;;;3.80;;
18200;SDS011;9226;47.858;9.594;2023-04-03T16:23:32;7.13;;;3.40;;
18200;SDS011;9226;47.858;9.594;2023-04-03T16:25:58;5.13;;;3.47;;
18200;SDS011;9226;47.858;9.594;2023-04-03T16:28:24;5.30;;;3.60;;
18200;SDS011;9226;47.858;9.594;2023-04-03T16:30:49;4.73;;;3.20;;
18200;SDS011;9226;47.858;9.594;2023-04-03T16:33:15;9.03;;;3.50;;
18200;SDS011;9226;47.858;9.594;2023-04-03T16:35:40;5.47;;;3.13;;
18200;SDS011;9226;47.858;9.594;2023-04-03T16:38:09;5.17;;;3.17;;
18200;SDS011;9226;47.858;9.594;2023-04-03T16:40:35;7.23;;;3.90;;
18200;SDS011;9226;47.858;9.594;2023-04-03T16:43:00;6.30;;;3.33;;
18200;SDS011;9226;47.858;9.594;2023-04-03T16:45:27;7.10;;;3.60;;
18200;SDS011;9226;47.858;9.594;2023-04-03T16:47:52;6.13;;;3.07;;
18200;SDS011;9226;47.858;9.594;2023-04-03T16:50:17;9.23;;;3.13;;